sensor_id;sensor_type;location;lat;lon;timestamp;P1;durP1;ratioP1;P2;durP2;ratioP2
7169;SDS011;3626;42.656;23.312;2022-07-23T00:00:03;14.90;;;5.63;;
7169;SDS011;3626;42.656;23.312;2022-07-23T00:00:10;14.60;;;5.60;;
7169;SDS011;3626;42.656;23.312;2022-07-23T00:00:18;14.03;;;5.70;;
7169;SDS011;3626;42.656;23.312;2022-07-23T00:00:24;12.60;;;5.70;;
7169;SDS011;3626;42.656;23.312;2022-07-23T00:00:30;12.70;;;5.73;;
7169;SDS011;3626;42.656;23.312;2022-07-23T00:00:36;12.23;;;5.60;;
7169;SDS011;3626;42.656;23.312;2022-07-23T00:00:42;12.20;;;5.70;;
7169;SDS011;3626;42.656;23.312;2022-07-23T00:00:48;10.68;;;5.50;;
7169;SDS011;3626;42.656;23.312;2022-07-23T00:00:54;10.50;;;5.43;;
7169;SDS011;3626;42.656;23.312;2022-07-23T00:01:00;8.95;;;5.25;;
7169;SDS011;3626;42.656;23.312;2022-07-23T00:01:05;9.35;;;5.13;;
7169;SDS011;3626;42.656;23.312;2022-07-23T00:01:11;10.15;;;5.20;;
7169;SDS011;3626;42.656;23.312;2022-07-23T00:01:17;10.77;;;5.25;;
7169;SDS011;3626;42.656;23.312;2022-07-23T00:01:23;11.03;;;5.30;;
7169;SDS011;3626;42.656;23.312;2022-07-23T00:01:29;12.17;;;5.47;;
7169;SDS011;3626;42.656;23.312;2022-07-23T00:01:35;12.65;;;5.65;;
7169;SDS011;3626;42.656;23.312;2022-07-23T00:01:41;11.20;;;5.33;;
7169;SDS011;3626;42.656;23.312;2022-07-23T00:01:47;11.00;;;5.30;;
7169;SDS011;3626;42.656;23.312;2022-07-23T00:01:53;11.50;;;5.30;;
7169;SDS011;3626;42.656;23.312;2022-07-23T00:01:58;11.23;;;5.28;;
7169;SDS011;3626;42.656;23.312;2022-07-23T00:02:04;11.35;;;5.25;;
7169;SDS011;3626;42.656;23.312;2022-07-23T00:02:11;11.40;;;5.27;;
7169;SDS011;3626;42.656;23.312;2022-07-23T00:02:17;12.27;;;5.15;;
7169;SDS011;3626;42.656;23.312;2022-07-23T00:02:23;12.10;;;5.10;;
7169;SDS011;3626;42.656;23.312;2022-07-23T00:02:28;11.15;;;5.05;;
7169;SDS011;3626;42.656;23.312;2022-07-23T00:02:34;10.80;;;4.93;;
7169;SDS011;3626;42.656;23.312;2022-07-23T00:02:40;10.73;;;5.05;;
7169;SDS011;3626;42.656;23.312;2022-07-23T00:02:46;11.33;;;5.20;;
7169;SDS011;3626;42.656;23.312;2022-07-23T00:02:51;10.93;;;5.25;;
7169;SDS011;3626;42.656;23.312;2022-07-23T00:02:58;10.97;;;5.33;;
7169;SDS011;3626;42.656;23.312;2022-07-23T00:03:04;11.70;;;5.50;;
7169;SDS011;3626;42.656;23.312;2022-07-23T00:03:11;10.40;;;5.34;;
7169;SDS011;3626;42.656;23.312;2022-07-23T00:03:17;9.50;;;5.50;;
7169;SDS011;3626;42.656;23.312;2022-07-23T00:03:23;9.80;;;5.78;;
7169;SDS011;3626;42.656;23.312;2022-07-23T00:03:28;9.77;;;5.80;;
7169;SDS011;3626;42.656;23.312;2022-07-23T00:03:34;9.80;;;5.80;;
7169;SDS011;3626;42.656;23.312;2022-07-23T00:03:40;10.50;;;5.90;;
7169;SDS011;3626;42.656;23.312;2022-07-23T00:03:46;11.05;;;6.07;;
7169;SDS011;3626;42.656;23.312;2022-07-23T00:03:51;11.60;;;6.10;;
7169;SDS011;3626;42.656;23.312;2022-07-23T00:03:59;12.23;;;6.20;;
7169;SDS011;3626;42.656;23.312;2022-07-23T00:04:05;11.40;;;6.10;;
7169;SDS011;3626;42.656;23.312;2022-07-23T00:04:10;11.75;;;6.22;;
7169;SDS011;3626;42.656;23.312;2022-07-23T00:04:16;11.55;;;6.40;;
7169;SDS011;3626;42.656;23.312;2022-07-23T00:04:22;11.40;;;6.30;;
7169;SDS011;3626;42.656;23.312;2022-07-23T00:04:28;11.57;;;6.40;;
7169;SDS011;3626;42.656;23.312;2022-07-23T00:04:33;11.82;;;6.50;;
7169;SDS011;3626;42.656;23.312;2022-07-23T00:04:40;11.24;;;6.40;;
7169;SDS011;3626;42.656;23.312;2022-07-23T00:04:46;10.47;;;6.23;;
7169;SDS011;3626;42.656;23.312;2022-07-23T00:04:52;10.20;;;6.32;;
7169;SDS011;3626;42.656;23.312;2022-07-23T00:04:57;9.63;;;6.25;;
7169;SDS011;3626;42.656;23.312;2022-07-23T00:05:03;9.63;;;6.30;;
7169;SDS011;3626;42.656;23.312;2022-07-23T00:05:09;10.34;;;6.30;;
7169;SDS011;3626;42.656;23.312;2022-07-23T00:05:15;10.38;;;6.07;;
7169;SDS011;3626;42.656;23.312;2022-07-23T00:05:21;10.90;;;5.70;;
7169;SDS011;3626;42.656;23.312;2022-07-23T00:05:27;11.75;;;5.60;;
7169;SDS011;3626;42.656;23.312;2022-07-23T00:05:33;12.45;;;5.50;;
7169;SDS011;3626;42.656;23.312;2022-07-23T00:05:39;12.38;;;5.32;;
7169;SDS011;3626;42.656;23.312;2022-07-23T00:05:44;12.45;;;5.25;;
7169;SDS011;3626;42.656;23.312;2022-07-23T00:05:50;12.30;;;5.20;;
7169;SDS011;3626;42.656;23.312;2022-07-23T00:05:56;12.10;;;5.20;;
7169;SDS011;3626;42.656;23.312;2022-07-23T00:06:02;12.02;;;5.18;;
7169;SDS011;3626;42.656;23.312;2022-07-23T00:06:08;11.10;;;5.06;;
7169;SDS011;3626;42.656;23.312;2022-07-23T00:06:15;11.30;;;5.00;;
7169;SDS011;3626;42.656;23.312;2022-07-23T00:06:21;10.75;;;5.13;;
7169;SDS011;3626;42.656;23.312;2022-07-23T00:06:27;9.80;;;5.13;;
7169;SDS011;3626;42.656;23.312;2022-07-23T00:06:33;9.05;;;5.20;;
7169;SDS011;3626;42.656;23.312;2022-07-23T00:06:38;8.55;;;5.20;;
7169;SDS011;3626;42.656;23.312;2022-07-23T00:06:44;8.63;;;5.23;;
7169;SDS011;3626;42.656;23.312;2022-07-23T00:06:50;9.07;;;5.20;;
7169;SDS011;3626;42.656;23.312;2022-07-23T00:06:56;8.88;;;5.03;;
7169;SDS011;3626;42.656;23.312;2022-07-23T00:07:01;8.95;;;5.05;;
7169;SDS011;3626;42.656;23.312;2022-07-23T00:07:07;9.40;;;5.20;;
7169;SDS011;3626;42.656;23.312;2022-07-23T00:07:13;8.80;;;5.30;;
7169;SDS011;3626;42.656;23.312;2022-07-23T00:07:19;8.85;;;5.40;;
7169;SDS011;3626;42.656;23.312;2022-07-23T00:07:24;8.90;;;5.40;;
7169;SDS011;3626;42.656;23.312;2022-07-23T00:07:31;8.60;;;5.23;;
7169;SDS011;3626;42.656;23.312;2022-07-23T00:07:37;8.68;;;5.30;;
7169;SDS011;3626;42.656;23.312;2022-07-23T00:07:43;8.57;;;5.43;;
7169;SDS011;3626;42.656;23.312;2022-07-23T00:07:49;8.40;;;5.50;;
7169;SDS011;3626;42.656;23.312;2022-07-23T00:07:55;9.63;;;5.70;;
7169;SDS011;3626;42.656;23.312;2022-07-23T00:08:01;9.98;;;5.78;;
7169;SDS011;3626;42.656;23.312;2022-07-23T00:08:07;9.63;;;5.60;;
7169;SDS011;3626;42.656;23.312;2022-07-23T00:08:14;9.60;;;5.42;;
7169;SDS011;3626;42.656;23.312;2022-07-23T00:08:21;9.85;;;5.35;;
7169;SDS011;3626;42.656;23.312;2022-07-23T00:08:27;9.45;;;5.25;;
7169;SDS011;3626;42.656;23.312;2022-07-23T00:08:32;9.32;;;5.30;;
7169;SDS011;3626;42.656;23.312;2022-07-23T00:08:38;9.90;;;5.40;;
7169;SDS011;3626;42.656;23.312;2022-07-23T00:08:44;10.23;;;5.30;;
7169;SDS011;3626;42.656;23.312;2022-07-23T00:08:50;10.77;;;5.38;;
7169;SDS011;3626;42.656;23.312;2022-07-23T00:08:56;10.00;;;5.30;;
7169;SDS011;3626;42.656;23.312;2022-07-23T00:09:02;10.77;;;5.43;;
7169;SDS011;3626;42.656;23.312;2022-07-23T00:09:08;11.70;;;5.50;;
7169;SDS011;3626;42.656;23.312;2022-07-23T00:09:13;11.73;;;5.50;;
7169;SDS011;3626;42.656;23.312;2022-07-23T00:09:19;11.95;;;5.57;;
7169;SDS011;3626;42.656;23.312;2022-07-23T00:09:25;11.98;;;5.60;;
7169;SDS011;3626;42.656;23.312;2022-07-23T00:09:31;12.27;;;5.57;;
7169;SDS011;3626;42.656;23.312;2022-07-23T00:09:37;11.47;;;5.40;;
7169;SDS011;3626;42.656;23.312;2022-07-23T00:09:43;11.05;;;5.32;;
7169;SDS011;3626;42.656;23.312;2022-07-23T00:09:50;10.30;;;5.03;;
7169;SDS011;3626;42.656;23.312;2022-07-23T00:09:55;10.70;;;4.97;;
7169;SDS011;3626;42.656;23.312;2022-07-23T00:10:01;9.82;;;4.90;;
7169;SDS011;3626;42.656;23.312;2022-07-23T00:10:08;8.85;;;4.80;;
7169;SDS011;3626;42.656;23.312;2022-07-23T00:10:14;8.57;;;4.63;;
7169;SDS011;3626;42.656;23.312;2022-07-23T00:10:19;8.33;;;4.60;;
7169;SDS011;3626;42.656;23.312;2022-07-23T00:10:25;8.10;;;4.50;;
7169;SDS011;3626;42.656;23.312;2022-07-23T00:10:31;7.95;;;4.50;;
7169;SDS011;3626;42.656;23.312;2022-07-23T00:10:37;8.85;;;4.65;;
7169;SDS011;3626;42.656;23.312;2022-07-23T00:10:43;9.53;;;4.80;;
7169;SDS011;3626;42.656;23.312;2022-07-23T00:10:49;9.83;;;4.80;;
7169;SDS011;3626;42.656;23.312;2022-07-23T00:10:54;9.05;;;4.90;;
7169;SDS011;3626;42.656;23.312;2022-07-23T00:11:01;9.06;;;4.78;;
7169;SDS011;3626;42.656;23.312;2022-07-23T00:11:07;9.40;;;4.85;;
7169;SDS011;3626;42.656;23.312;2022-07-23T00:11:13;10.33;;;4.97;;
7169;SDS011;3626;42.656;23.312;2022-07-23T00:11:18;9.93;;;4.85;;
7169;SDS011;3626;42.656;23.312;2022-07-23T00:11:24;9.75;;;4.82;;
7169;SDS011;3626;42.656;23.312;2022-07-23T00:11:30;10.10;;;4.93;;
7169;SDS011;3626;42.656;23.312;2022-07-23T00:11:36;10.23;;;5.00;;
7169;SDS011;3626;42.656;23.312;2022-07-23T00:11:41;9.70;;;4.90;;
7169;SDS011;3626;42.656;23.312;2022-07-23T00:11:47;11.38;;;4.90;;
7169;SDS011;3626;42.656;23.312;2022-07-23T00:11:53;12.35;;;4.90;;
7169;SDS011;3626;42.656;23.312;2022-07-23T00:11:59;12.80;;;5.20;;
7169;SDS011;3626;42.656;23.312;2022-07-23T00:12:05;12.40;;;5.17;;
7169;SDS011;3626;42.656;23.312;2022-07-23T00:12:11;12.02;;;5.25;;
7169;SDS011;3626;42.656;23.312;2022-07-23T00:12:17;12.18;;;5.53;;
7169;SDS011;3626;42.656;23.312;2022-07-23T00:12:23;12.30;;;5.60;;
7169;SDS011;3626;42.656;23.312;2022-07-23T00:12:29;12.43;;;5.50;;
7169;SDS011;3626;42.656;23.312;2022-07-23T00:12:34;11.90;;;5.38;;
7169;SDS011;3626;42.656;23.312;2022-07-23T00:12:40;12.00;;;5.40;;
7169;SDS011;3626;42.656;23.312;2022-07-23T00:12:46;10.95;;;5.30;;
7169;SDS011;3626;42.656;23.312;2022-07-23T00:12:52;10.20;;;5.30;;
7169;SDS011;3626;42.656;23.312;2022-07-23T00:12:58;9.67;;;5.13;;
7169;SDS011;3626;42.656;23.312;2022-07-23T00:13:03;10.07;;;5.07;;
7169;SDS011;3626;42.656;23.312;2022-07-23T00:13:09;10.18;;;5.00;;
7169;SDS011;3626;42.656;23.312;2022-07-23T00:13:15;10.35;;;4.80;;
7169;SDS011;3626;42.656;23.312;2022-07-23T00:13:21;10.48;;;4.82;;
7169;SDS011;3626;42.656;23.312;2022-07-23T00:13:28;10.53;;;5.07;;
7169;SDS011;3626;42.656;23.312;2022-07-23T00:13:33;10.65;;;5.07;;
7169;SDS011;3626;42.656;23.312;2022-07-23T00:13:39;10.65;;;5.05;;
7169;SDS011;3626;42.656;23.312;2022-07-23T00:13:45;10.47;;;5.10;;
7169;SDS011;3626;42.656;23.312;2022-07-23T00:13:51;10.20;;;5.13;;
7169;SDS011;3626;42.656;23.312;2022-07-23T00:13:56;11.65;;;5.20;;
7169;SDS011;3626;42.656;23.312;2022-07-23T00:14:02;10.73;;;5.10;;
7169;SDS011;3626;42.656;23.312;2022-07-23T00:14:08;10.48;;;5.10;;
7169;SDS011;3626;42.656;23.312;2022-07-23T00:14:14;9.57;;;5.00;;
7169;SDS011;3626;42.656;23.312;2022-07-23T00:14:20;9.65;;;5.18;;
7169;SDS011;3626;42.656;23.312;2022-07-23T00:14:26;10.10;;;5.10;;
7169;SDS011;3626;42.656;23.312;2022-07-23T00:14:31;10.77;;;5.18;;
7169;SDS011;3626;42.656;23.312;2022-07-23T00:14:37;10.93;;;5.10;;
7169;SDS011;3626;42.656;23.312;2022-07-23T00:14:43;11.03;;;5.23;;
7169;SDS011;3626;42.656;23.312;2022-07-23T00:14:49;12.77;;;5.30;;
7169;SDS011;3626;42.656;23.312;2022-07-23T00:14:55;11.75;;;5.30;;
7169;SDS011;3626;42.656;23.312;2022-07-23T00:15:02;11.50;;;5.32;;
7169;SDS011;3626;42.656;23.312;2022-07-23T00:15:08;11.80;;;5.30;;
7169;SDS011;3626;42.656;23.312;2022-07-23T00:15:15;11.80;;;5.27;;
7169;SDS011;3626;42.656;23.312;2022-07-23T00:15:20;11.57;;;5.03;;
7169;SDS011;3626;42.656;23.312;2022-07-23T00:15:26;10.93;;;4.90;;
7169;SDS011;3626;42.656;23.312;2022-07-23T00:15:32;10.47;;;4.90;;
7169;SDS011;3626;42.656;23.312;2022-07-23T00:15:38;10.85;;;4.95;;
7169;SDS011;3626;42.656;23.312;2022-07-23T00:15:44;10.90;;;4.93;;
7169;SDS011;3626;42.656;23.312;2022-07-23T00:15:49;9.85;;;4.97;;
7169;SDS011;3626;42.656;23.312;2022-07-23T00:15:55;9.38;;;4.88;;
7169;SDS011;3626;42.656;23.312;2022-07-23T00:16:01;9.27;;;4.80;;
7169;SDS011;3626;42.656;23.312;2022-07-23T00:16:07;9.38;;;4.94;;
7169;SDS011;3626;42.656;23.312;2022-07-23T00:16:14;9.56;;;5.20;;
7169;SDS011;3626;42.656;23.312;2022-07-23T00:16:20;9.77;;;5.20;;
7169;SDS011;3626;42.656;23.312;2022-07-23T00:16:26;9.97;;;5.30;;
7169;SDS011;3626;42.656;23.312;2022-07-23T00:16:32;9.52;;;5.25;;
7169;SDS011;3626;42.656;23.312;2022-07-23T00:16:37;9.02;;;5.15;;
7169;SDS011;3626;42.656;23.312;2022-07-23T00:16:43;9.50;;;5.03;;
7169;SDS011;3626;42.656;23.312;2022-07-23T00:16:49;10.03;;;5.00;;
7169;SDS011;3626;42.656;23.312;2022-07-23T00:16:55;10.30;;;4.95;;
7169;SDS011;3626;42.656;23.312;2022-07-23T00:17:00;10.57;;;5.10;;
7169;SDS011;3626;42.656;23.312;2022-07-23T00:17:06;10.57;;;5.10;;
7169;SDS011;3626;42.656;23.312;2022-07-23T00:17:12;10.70;;;4.90;;
7169;SDS011;3626;42.656;23.312;2022-07-23T00:17:18;10.50;;;4.90;;
7169;SDS011;3626;42.656;23.312;2022-07-23T00:17:24;10.05;;;4.85;;
7169;SDS011;3626;42.656;23.312;2022-07-23T00:17:29;10.20;;;4.93;;
7169;SDS011;3626;42.656;23.312;2022-07-23T00:17:35;10.63;;;5.17;;
7169;SDS011;3626;42.656;23.312;2022-07-23T00:17:42;10.06;;;5.20;;
7169;SDS011;3626;42.656;23.312;2022-07-23T00:17:48;10.98;;;5.15;;
7169;SDS011;3626;42.656;23.312;2022-07-23T00:17:53;10.50;;;5.10;;
7169;SDS011;3626;42.656;23.312;2022-07-23T00:17:59;10.83;;;5.10;;
7169;SDS011;3626;42.656;23.312;2022-07-23T00:18:05;10.48;;;5.00;;
7169;SDS011;3626;42.656;23.312;2022-07-23T00:18:10;10.27;;;5.05;;
7169;SDS011;3626;42.656;23.312;2022-07-23T00:18:16;10.15;;;5.00;;
7169;SDS011;3626;42.656;23.312;2022-07-23T00:18:22;10.70;;;5.00;;
7169;SDS011;3626;42.656;23.312;2022-07-23T00:18:28;10.90;;;5.00;;
7169;SDS011;3626;42.656;23.312;2022-07-23T00:18:33;11.25;;;4.90;;
7169;SDS011;3626;42.656;23.312;2022-07-23T00:18:39;11.38;;;4.97;;
7169;SDS011;3626;42.656;23.312;2022-07-23T00:18:45;10.87;;;5.00;;
7169;SDS011;3626;42.656;23.312;2022-07-23T00:18:51;10.35;;;5.10;;
7169;SDS011;3626;42.656;23.312;2022-07-23T00:18:57;10.00;;;4.90;;
7169;SDS011;3626;42.656;23.312;2022-07-23T00:19:02;10.40;;;5.00;;
7169;SDS011;3626;42.656;23.312;2022-07-23T00:19:09;10.70;;;5.00;;
7169;SDS011;3626;42.656;23.312;2022-07-23T00:19:15;11.30;;;5.18;;
7169;SDS011;3626;42.656;23.312;2022-07-23T00:19:21;11.52;;;5.30;;
7169;SDS011;3626;42.656;23.312;2022-07-23T00:19:26;11.68;;;5.28;;
7169;SDS011;3626;42.656;23.312;2022-07-23T00:19:34;10.80;;;5.13;;
7169;SDS011;3626;42.656;23.312;2022-07-23T00:19:39;10.63;;;4.97;;
7169;SDS011;3626;42.656;23.312;2022-07-23T00:19:45;10.17;;;5.00;;
7169;SDS011;3626;42.656;23.312;2022-07-23T00:19:51;9.27;;;4.97;;
7169;SDS011;3626;42.656;23.312;2022-07-23T00:19:58;9.10;;;5.00;;
7169;SDS011;3626;42.656;23.312;2022-07-23T00:20:05;8.80;;;5.03;;
7169;SDS011;3626;42.656;23.312;2022-07-23T00:20:12;8.40;;;5.07;;
7169;SDS011;3626;42.656;23.312;2022-07-23T00:20:17;8.63;;;4.90;;
7169;SDS011;3626;42.656;23.312;2022-07-23T00:20:23;8.03;;;4.80;;
7169;SDS011;3626;42.656;23.312;2022-07-23T00:20:29;7.75;;;4.70;;
7169;SDS011;3626;42.656;23.312;2022-07-23T00:20:35;7.65;;;4.70;;
7169;SDS011;3626;42.656;23.312;2022-07-23T00:20:42;7.44;;;4.64;;
7169;SDS011;3626;42.656;23.312;2022-07-23T00:20:47;7.50;;;4.70;;
7169;SDS011;3626;42.656;23.312;2022-07-23T00:20:53;7.35;;;4.60;;
7169;SDS011;3626;42.656;23.312;2022-07-23T00:20:59;8.32;;;4.68;;
7169;SDS011;3626;42.656;23.312;2022-07-23T00:21:05;9.35;;;4.68;;
7169;SDS011;3626;42.656;23.312;2022-07-23T00:21:10;9.45;;;4.53;;
7169;SDS011;3626;42.656;23.312;2022-07-23T00:21:16;9.00;;;4.57;;
7169;SDS011;3626;42.656;23.312;2022-07-23T00:21:22;9.00;;;4.53;;
7169;SDS011;3626;42.656;23.312;2022-07-23T00:21:28;9.60;;;4.68;;
7169;SDS011;3626;42.656;23.312;2022-07-23T00:21:33;10.60;;;4.80;;
7169;SDS011;3626;42.656;23.312;2022-07-23T00:21:39;10.70;;;4.80;;
7169;SDS011;3626;42.656;23.312;2022-07-23T00:21:45;11.13;;;4.80;;
7169;SDS011;3626;42.656;23.312;2022-07-23T00:21:51;11.02;;;4.70;;
7169;SDS011;3626;42.656;23.312;2022-07-23T00:21:56;11.00;;;4.63;;
7169;SDS011;3626;42.656;23.312;2022-07-23T00:22:02;10.60;;;4.80;;
7169;SDS011;3626;42.656;23.312;2022-07-23T00:22:09;10.63;;;4.90;;
7169;SDS011;3626;42.656;23.312;2022-07-23T00:22:15;10.50;;;4.80;;
7169;SDS011;3626;42.656;23.312;2022-07-23T00:22:20;10.57;;;4.80;;
7169;SDS011;3626;42.656;23.312;2022-07-23T00:22:26;9.88;;;4.78;;
7169;SDS011;3626;42.656;23.312;2022-07-23T00:22:34;8.50;;;4.50;;
7169;SDS011;3626;42.656;23.312;2022-07-23T00:22:45;8.70;;;4.43;;
7169;SDS011;3626;42.656;23.312;2022-07-23T00:22:52;9.37;;;4.64;;
7169;SDS011;3626;42.656;23.312;2022-07-23T00:22:59;9.18;;;4.73;;
7169;SDS011;3626;42.656;23.312;2022-07-23T00:23:05;7.85;;;4.50;;
7169;SDS011;3626;42.656;23.312;2022-07-23T00:23:11;8.00;;;4.60;;
7169;SDS011;3626;42.656;23.312;2022-07-23T00:23:18;8.05;;;4.55;;
7169;SDS011;3626;42.656;23.312;2022-07-23T00:23:24;8.00;;;4.50;;
7169;SDS011;3626;42.656;23.312;2022-07-23T00:23:30;8.02;;;4.57;;
7169;SDS011;3626;42.656;23.312;2022-07-23T00:23:36;9.27;;;4.73;;
7169;SDS011;3626;42.656;23.312;2022-07-23T00:23:42;8.98;;;4.88;;
7169;SDS011;3626;42.656;23.312;2022-07-23T00:23:48;9.05;;;4.63;;
7169;SDS011;3626;42.656;23.312;2022-07-23T00:23:54;9.70;;;4.60;;
7169;SDS011;3626;42.656;23.312;2022-07-23T00:23:59;10.13;;;4.77;;
7169;SDS011;3626;42.656;23.312;2022-07-23T00:24:05;10.00;;;4.80;;
7169;SDS011;3626;42.656;23.312;2022-07-23T00:24:11;9.63;;;4.80;;
7169;SDS011;3626;42.656;23.312;2022-07-23T00:24:17;9.90;;;4.97;;
7169;SDS011;3626;42.656;23.312;2022-07-23T00:24:23;9.77;;;5.05;;
7169;SDS011;3626;42.656;23.312;2022-07-23T00:24:28;10.57;;;5.17;;
7169;SDS011;3626;42.656;23.312;2022-07-23T00:24:34;9.95;;;5.20;;
7169;SDS011;3626;42.656;23.312;2022-07-23T00:24:40;9.43;;;5.10;;
7169;SDS011;3626;42.656;23.312;2022-07-23T00:24:46;9.60;;;5.25;;
7169;SDS011;3626;42.656;23.312;2022-07-23T00:24:52;8.38;;;5.18;;
7169;SDS011;3626;42.656;23.312;2022-07-23T00:24:58;10.20;;;5.13;;
7169;SDS011;3626;42.656;23.312;2022-07-23T00:25:04;11.73;;;5.10;;
7169;SDS011;3626;42.656;23.312;2022-07-23T00:25:10;12.17;;;5.13;;
7169;SDS011;3626;42.656;23.312;2022-07-23T00:25:16;12.18;;;5.20;;
7169;SDS011;3626;42.656;23.312;2022-07-23T00:25:22;13.10;;;5.10;;
7169;SDS011;3626;42.656;23.312;2022-07-23T00:25:28;13.28;;;5.10;;
7169;SDS011;3626;42.656;23.312;2022-07-23T00:25:34;13.88;;;5.00;;
7169;SDS011;3626;42.656;23.312;2022-07-23T00:25:40;13.73;;;4.93;;
7169;SDS011;3626;42.656;23.312;2022-07-23T00:25:45;13.73;;;4.87;;
7169;SDS011;3626;42.656;23.312;2022-07-23T00:25:51;13.75;;;4.85;;
7169;SDS011;3626;42.656;23.312;2022-07-23T00:25:57;12.38;;;4.78;;
7169;SDS011;3626;42.656;23.312;2022-07-23T00:26:03;10.82;;;4.78;;
7169;SDS011;3626;42.656;23.312;2022-07-23T00:26:09;10.50;;;4.73;;
7169;SDS011;3626;42.656;23.312;2022-07-23T00:26:16;10.18;;;4.62;;
7169;SDS011;3626;42.656;23.312;2022-07-23T00:26:21;9.17;;;4.50;;
7169;SDS011;3626;42.656;23.312;2022-07-23T00:26:27;8.48;;;4.40;;
7169;SDS011;3626;42.656;23.312;2022-07-23T00:26:33;8.05;;;4.40;;
7169;SDS011;3626;42.656;23.312;2022-07-23T00:26:39;8.52;;;4.60;;
7169;SDS011;3626;42.656;23.312;2022-07-23T00:26:45;8.67;;;4.70;;
7169;SDS011;3626;42.656;23.312;2022-07-23T00:26:50;8.82;;;4.72;;
7169;SDS011;3626;42.656;23.312;2022-07-23T00:26:56;9.38;;;4.88;;
7169;SDS011;3626;42.656;23.312;2022-07-23T00:27:02;12.65;;;4.90;;
7169;SDS011;3626;42.656;23.312;2022-07-23T00:27:08;12.38;;;4.82;;
7169;SDS011;3626;42.656;23.312;2022-07-23T00:27:14;12.30;;;4.90;;
7169;SDS011;3626;42.656;23.312;2022-07-23T00:27:20;12.30;;;4.93;;
7169;SDS011;3626;42.656;23.312;2022-07-23T00:27:26;12.50;;;5.00;;
7169;SDS011;3626;42.656;23.312;2022-07-23T00:27:32;13.53;;;5.00;;
7169;SDS011;3626;42.656;23.312;2022-07-23T00:27:37;13.70;;;4.97;;
7169;SDS011;3626;42.656;23.312;2022-07-23T00:27:43;13.15;;;4.78;;
7169;SDS011;3626;42.656;23.312;2022-07-23T00:27:49;12.60;;;4.80;;
7169;SDS011;3626;42.656;23.312;2022-07-23T00:27:56;12.50;;;4.70;;
7169;SDS011;3626;42.656;23.312;2022-07-23T00:28:02;8.93;;;4.70;;
7169;SDS011;3626;42.656;23.312;2022-07-23T00:28:08;9.18;;;4.74;;
7169;SDS011;3626;42.656;23.312;2022-07-23T00:28:14;9.85;;;4.72;;
7169;SDS011;3626;42.656;23.312;2022-07-23T00:28:20;10.13;;;4.70;;
7169;SDS011;3626;42.656;23.312;2022-07-23T00:28:26;10.15;;;4.70;;
7169;SDS011;3626;42.656;23.312;2022-07-23T00:28:31;9.00;;;4.80;;
7169;SDS011;3626;42.656;23.312;2022-07-23T00:28:37;8.55;;;4.80;;
7169;SDS011;3626;42.656;23.312;2022-07-23T00:28:43;8.50;;;4.80;;
7169;SDS011;3626;42.656;23.312;2022-07-23T00:28:48;8.98;;;4.80;;
7169;SDS011;3626;42.656;23.312;2022-07-23T00:28:54;9.10;;;4.90;;
7169;SDS011;3626;42.656;23.312;2022-07-23T00:29:00;8.83;;;4.90;;
7169;SDS011;3626;42.656;23.312;2022-07-23T00:29:06;9.65;;;5.00;;
7169;SDS011;3626;42.656;23.312;2022-07-23T00:29:11;10.30;;;4.90;;
7169;SDS011;3626;42.656;23.312;2022-07-23T00:29:17;10.27;;;5.00;;
7169;SDS011;3626;42.656;23.312;2022-07-23T00:29:24;11.72;;;5.00;;
7169;SDS011;3626;42.656;23.312;2022-07-23T00:29:30;13.07;;;5.07;;
7169;SDS011;3626;42.656;23.312;2022-07-23T00:29:35;12.93;;;4.97;;
7169;SDS011;3626;42.656;23.312;2022-07-23T00:29:41;12.70;;;4.90;;
7169;SDS011;3626;42.656;23.312;2022-07-23T00:29:47;12.50;;;4.90;;
7169;SDS011;3626;42.656;23.312;2022-07-23T00:29:53;12.07;;;4.73;;
7169;SDS011;3626;42.656;23.312;2022-07-23T00:29:58;11.60;;;4.60;;
7169;SDS011;3626;42.656;23.312;2022-07-23T00:30:04;10.88;;;4.70;;
7169;SDS011;3626;42.656;23.312;2022-07-23T00:30:12;10.23;;;4.70;;
7169;SDS011;3626;42.656;23.312;2022-07-23T00:30:18;10.10;;;4.70;;
7169;SDS011;3626;42.656;23.312;2022-07-23T00:30:24;8.73;;;5.00;;
7169;SDS011;3626;42.656;23.312;2022-07-23T00:30:30;7.90;;;5.05;;
7169;SDS011;3626;42.656;23.312;2022-07-23T00:30:37;8.00;;;5.23;;
7169;SDS011;3626;42.656;23.312;2022-07-23T00:30:44;8.32;;;5.30;;
7169;SDS011;3626;42.656;23.312;2022-07-23T00:30:50;8.82;;;5.40;;
7169;SDS011;3626;42.656;23.312;2022-07-23T00:30:55;9.25;;;5.60;;
7169;SDS011;3626;42.656;23.312;2022-07-23T00:31:01;9.20;;;5.50;;
7169;SDS011;3626;42.656;23.312;2022-07-23T00:31:07;9.43;;;5.40;;
7169;SDS011;3626;42.656;23.312;2022-07-23T00:31:13;10.43;;;5.47;;
7169;SDS011;3626;42.656;23.312;2022-07-23T00:31:19;9.70;;;5.32;;
7169;SDS011;3626;42.656;23.312;2022-07-23T00:31:24;9.35;;;5.10;;
7169;SDS011;3626;42.656;23.312;2022-07-23T00:31:30;9.23;;;5.10;;
7169;SDS011;3626;42.656;23.312;2022-07-23T00:31:36;8.88;;;4.93;;
7169;SDS011;3626;42.656;23.312;2022-07-23T00:31:42;9.14;;;4.90;;
7169;SDS011;3626;42.656;23.312;2022-07-23T00:31:48;8.57;;;4.82;;
7169;SDS011;3626;42.656;23.312;2022-07-23T00:31:54;9.05;;;4.70;;
7169;SDS011;3626;42.656;23.312;2022-07-23T00:32:00;9.13;;;4.60;;
7169;SDS011;3626;42.656;23.312;2022-07-23T00:32:06;9.05;;;4.60;;
7169;SDS011;3626;42.656;23.312;2022-07-23T00:32:13;7.76;;;4.50;;
7169;SDS011;3626;42.656;23.312;2022-07-23T00:32:18;9.65;;;4.78;;
7169;SDS011;3626;42.656;23.312;2022-07-23T00:32:24;9.87;;;4.80;;
7169;SDS011;3626;42.656;23.312;2022-07-23T00:32:30;9.85;;;4.65;;
7169;SDS011;3626;42.656;23.312;2022-07-23T00:32:44;10.35;;;4.70;;
7169;SDS011;3626;42.656;23.312;2022-07-23T00:32:51;9.89;;;4.69;;
7169;SDS011;3626;42.656;23.312;2022-07-23T00:32:58;9.33;;;5.03;;
7169;SDS011;3626;42.656;23.312;2022-07-23T00:33:06;10.30;;;5.23;;
7169;SDS011;3626;42.656;23.312;2022-07-23T00:33:12;10.12;;;5.30;;
7169;SDS011;3626;42.656;23.312;2022-07-23T00:33:18;8.70;;;5.18;;
7169;SDS011;3626;42.656;23.312;2022-07-23T00:33:24;8.50;;;5.00;;
7169;SDS011;3626;42.656;23.312;2022-07-23T00:33:30;8.70;;;5.15;;
7169;SDS011;3626;42.656;23.312;2022-07-23T00:33:37;8.10;;;5.10;;
7169;SDS011;3626;42.656;23.312;2022-07-23T00:33:42;8.85;;;5.10;;
7169;SDS011;3626;42.656;23.312;2022-07-23T00:33:48;9.47;;;5.13;;
7169;SDS011;3626;42.656;23.312;2022-07-23T00:33:54;11.23;;;5.20;;
7169;SDS011;3626;42.656;23.312;2022-07-23T00:34:01;11.40;;;4.93;;
7169;SDS011;3626;42.656;23.312;2022-07-23T00:34:07;11.10;;;4.90;;
7169;SDS011;3626;42.656;23.312;2022-07-23T00:34:13;11.38;;;5.00;;
7169;SDS011;3626;42.656;23.312;2022-07-23T00:34:19;12.52;;;5.10;;
7169;SDS011;3626;42.656;23.312;2022-07-23T00:34:24;12.17;;;5.03;;
7169;SDS011;3626;42.656;23.312;2022-07-23T00:34:30;12.25;;;5.05;;
7169;SDS011;3626;42.656;23.312;2022-07-23T00:34:36;13.80;;;5.30;;
7169;SDS011;3626;42.656;23.312;2022-07-23T00:34:42;13.57;;;5.30;;
7169;SDS011;3626;42.656;23.312;2022-07-23T00:34:47;14.13;;;5.30;;
7169;SDS011;3626;42.656;23.312;2022-07-23T00:34:53;11.95;;;5.13;;
7169;SDS011;3626;42.656;23.312;2022-07-23T00:35:00;10.53;;;5.00;;
7169;SDS011;3626;42.656;23.312;2022-07-23T00:35:06;10.50;;;5.00;;
7169;SDS011;3626;42.656;23.312;2022-07-23T00:35:12;10.50;;;5.00;;
7169;SDS011;3626;42.656;23.312;2022-07-23T00:35:19;9.83;;;4.90;;
7169;SDS011;3626;42.656;23.312;2022-07-23T00:35:26;9.53;;;5.10;;
7169;SDS011;3626;42.656;23.312;2022-07-23T00:35:34;8.40;;;5.00;;
7169;SDS011;3626;42.656;23.312;2022-07-23T00:35:40;8.60;;;4.90;;
7169;SDS011;3626;42.656;23.312;2022-07-23T00:35:46;7.50;;;4.80;;
7169;SDS011;3626;42.656;23.312;2022-07-23T00:35:52;7.72;;;4.93;;
7169;SDS011;3626;42.656;23.312;2022-07-23T00:35:58;8.10;;;5.00;;
7169;SDS011;3626;42.656;23.312;2022-07-23T00:36:04;9.27;;;5.03;;
7169;SDS011;3626;42.656;23.312;2022-07-23T00:36:10;9.75;;;5.00;;
7169;SDS011;3626;42.656;23.312;2022-07-23T00:36:16;9.45;;;4.95;;
7169;SDS011;3626;42.656;23.312;2022-07-23T00:36:22;9.10;;;4.80;;
7169;SDS011;3626;42.656;23.312;2022-07-23T00:36:29;9.30;;;4.80;;